Time;durP1;ratioP1;P1;durP2;ratioP2;P2;SDS_P1;SDS_P2;PMS_P1;PMS_P2;Temp;Humidity;BMP_temperature;BMP_pressure;BME280_temperature;BME280_humidity;BME280_pressure;Samples;Min_cycle;Max_cycle;Signal;HPM_P1;HPM_P2
2021/12/06 00:01:29;;;;;;;49.27;31.07;;;3.90;91.20;;;;;;4953482;29;20223;-70
2021/12/06 00:04:17;;;;;;;49.03;30.27;;;3.90;91.30;;;;;;4954974;28;20210;-70
2021/12/06 00:06:48;;;;;;;47.70;29.17;;;3.90;91.30;;;;;;4967778;28;20230;-70
2021/12/06 00:09:21;;;;;;;40.53;27.20;;;3.90;91.30;;;;;;4953199;29;20206;-70
2021/12/06 00:11:51;;;;;;;45.77;28.47;;;3.90;91.40;;;;;;4950772;29;20625;-70
2021/12/06 00:14:19;;;;;;;48.70;29.57;;;3.90;91.40;;;;;;4952918;29;20295;-70
2021/12/06 00:16:46;;;;;;;42.20;27.93;;;3.90;91.40;;;;;;4956195;28;20220;-70
2021/12/06 00:19:13;;;;;;;39.80;27.70;;;3.90;91.30;;;;;;4956858;28;20230;-70
2021/12/06 00:21:41;;;;;;;45.07;27.97;;;3.90;91.30;;;;;;4962317;28;20235;-70
2021/12/06 00:24:08;;;;;;;45.93;28.20;;;3.80;91.30;;;;;;4954999;29;20259;-70
2021/12/06 00:26:35;;;;;;;41.77;28.10;;;3.80;91.20;;;;;;4958244;28;20210;-70
2021/12/06 00:29:03;;;;;;;43.00;27.23;;;3.80;91.20;;;;;;4958445;28;20200;-70
2021/12/06 00:31:33;;;;;;;43.53;28.60;;;3.80;91.30;;;;;;4955329;29;20282;-70
2021/12/06 00:34:06;;;;;;;41.27;26.93;;;3.80;91.30;;;;;;4957286;29;20230;-70
2021/12/06 00:36:39;;;;;;;43.10;28.20;;;3.80;91.30;;;;;;4969599;28;20919;-70
2021/12/06 00:39:11;;;;;;;45.40;27.63;;;3.80;91.30;;;;;;4967481;28;20654;-70
2021/12/06 00:41:40;;;;;;;40.20;27.20;;;3.80;91.20;;;;;;4969040;28;20236;-70
2021/12/06 00:44:08;;;;;;;42.80;26.27;;;3.80;91.20;;;;;;4953337;28;20215;-70
2021/12/06 00:46:37;;;;;;;36.93;25.93;;;3.70;91.30;;;;;;4956693;29;20318;-70
2021/12/06 00:49:06;;;;;;;39.60;26.47;;;3.80;91.40;;;;;;4956242;28;20215;-70
2021/12/06 00:51:34;;;;;;;40.97;25.50;;;3.70;91.30;;;;;;4952514;28;20203;-70
2021/12/06 00:54:01;;;;;;;38.33;26.13;;;3.70;91.30;;;;;;4960961;28;20246;-70
2021/12/06 00:56:29;;;;;;;39.00;26.77;;;3.70;91.30;;;;;;4955935;29;20250;-70
2021/12/06 00:58:56;;;;;;;41.40;26.63;;;3.70;91.30;;;;;;4956388;28;20238;-70
2021/12/06 01:01:24;;;;;;;37.53;25.67;;;3.70;91.30;;;;;;4956994;28;20310;-69
2021/12/06 01:03:52;;;;;;;38.63;26.13;;;3.70;91.30;;;;;;4954689;28;20211;-69
2021/12/06 01:06:19;;;;;;;40.30;25.73;;;3.70;91.30;;;;;;4956035;28;20269;-70
2021/12/06 01:08:46;;;;;;;41.17;26.70;;;3.70;91.20;;;;;;4956596;28;20567;-70
2021/12/06 01:11:14;;;;;;;36.80;25.00;;;3.70;91.30;;;;;;4955979;29;20203;-70
2021/12/06 01:13:41;;;;;;;39.13;24.73;;;3.70;91.30;;;;;;4955266;29;20238;-70
2021/12/06 01:16:09;;;;;;;41.83;27.33;;;3.70;91.30;;;;;;4955689;29;20564;-70
2021/12/06 01:18:37;;;;;;;40.57;25.57;;;3.60;91.30;;;;;;4955405;29;20210;-70
2021/12/06 01:23:52;;;;;;;41.50;26.43;;;3.60;91.20;;;;;;4971634;28;20215;-70
2021/12/06 01:29:06;;;;;;;50.00;30.17;;;3.60;91.30;;;;;;4954936;29;20234;-70
2021/12/06 01:31:52;;;;;;;49.80;28.57;;;3.60;91.40;;;;;;4955467;29;20241;-70
2021/12/06 01:39:58;;;;;;;41.33;28.30;;;3.50;91.30;;;;;;4961817;28;20212;-70
2021/12/06 01:42:26;;;;;;;45.87;29.60;;;3.50;91.30;;;;;;4958694;28;20282;-70
2021/12/06 01:44:57;;;;;;;45.60;29.07;;;3.50;91.20;;;;;;4956388;29;20210;-70
2021/12/06 01:47:33;;;;;;;44.50;28.10;;;3.50;91.20;;;;;;4954603;29;20243;-70
2021/12/06 01:50:17;;;;;;;47.53;30.97;;;3.40;91.30;;;;;;4951771;28;20209;-70
2021/12/06 01:52:52;;;;;;;46.40;29.87;;;3.40;91.40;;;;;;4951281;29;20216;-70
2021/12/06 01:55:25;;;;;;;49.93;29.43;;;3.40;91.30;;;;;;4946934;28;20206;-70
2021/12/06 01:57:53;;;;;;;44.47;28.97;;;3.40;91.30;;;;;;4970555;28;20276;-70
2021/12/06 02:00:33;;;;;;;48.83;29.77;;;3.40;91.20;;;;;;4954243;29;20241;-70
2021/12/06 02:03:08;;;;;;;47.80;29.40;;;3.40;91.30;;;;;;4971308;28;20253;-69
2021/12/06 02:05:40;;;;;;;47.87;31.53;;;3.40;91.40;;;;;;4939089;29;20211;-69
2021/12/06 02:08:10;;;;;;;51.33;31.37;;;3.40;91.40;;;;;;4941718;28;20215;-69
2021/12/06 02:10:39;;;;;;;52.37;32.03;;;3.50;91.50;;;;;;4953728;29;20295;-69
2021/12/06 02:13:11;;;;;;;46.43;31.23;;;3.50;91.50;;;;;;4955390;29;20219;-69
2021/12/06 02:15:47;;;;;;;47.03;31.57;;;3.50;91.60;;;;;;4954922;28;20225;-69
2021/12/06 02:21:20;;;;;;;53.10;32.23;;;3.60;91.50;;;;;;4963245;28;20557;-69
2021/12/06 02:23:49;;;;;;;50.50;33.43;;;3.60;91.50;;;;;;4952694;29;20213;-69
2021/12/06 02:26:21;;;;;;;51.03;33.53;;;3.60;91.40;;;;;;4937635;29;20648;-69
2021/12/06 02:28:50;;;;;;;59.60;36.43;;;3.60;91.40;;;;;;4954896;29;20207;-69
2021/12/06 02:31:22;;;;;;;57.20;37.40;;;3.60;91.40;;;;;;4967510;28;20222;-69
2021/12/06 02:33:50;;;;;;;56.37;35.63;;;3.60;91.40;;;;;;4969588;28;20207;-70
2021/12/06 02:36:20;;;;;;;55.63;36.50;;;3.60;91.50;;;;;;4952643;29;20206;-70
2021/12/06 02:38:48;;;;;;;55.53;36.50;;;3.60;91.50;;;;;;4953964;28;20521;-70
2021/12/06 02:41:18;;;;;;;58.97;38.53;;;3.60;91.50;;;;;;4956744;28;20295;-70
2021/12/06 02:43:47;;;;;;;56.07;36.33;;;3.60;91.40;;;;;;4946696;28;20210;-70
2021/12/06 02:46:16;;;;;;;53.13;35.17;;;3.60;91.30;;;;;;4954328;28;20243;-70
2021/12/06 02:48:44;;;;;;;50.97;34.50;;;3.60;91.20;;;;;;4954322;28;20648;-70
2021/12/06 02:51:13;;;;;;;57.60;37.83;;;3.50;91.20;;;;;;4955130;28;20250;-70
2021/12/06 02:53:41;;;;;;;57.00;36.37;;;3.50;91.10;;;;;;4968998;28;20304;-70
2021/12/06 02:57:17;;;;;;;57.43;37.60;;;3.50;91.00;;;;;;4952449;28;20501;-69
2021/12/06 02:59:07;;;;;;;62.80;39.50;;;3.50;91.10;;;;;;4940229;29;20207;-69
2021/12/06 03:01:54;;;;;;;64.67;38.60;;;3.40;91.30;;;;;;4952889;29;20305;-69
2021/12/06 03:04:21;;;;;;;60.57;38.50;;;3.40;91.30;;;;;;4953468;28;20221;-69
2021/12/06 03:06:54;;;;;;;65.47;39.70;;;3.50;91.30;;;;;;4968428;28;20219;-69
2021/12/06 03:09:29;;;;;;;61.17;37.57;;;3.50;91.30;;;;;;4950515;29;20257;-69
2021/12/06 03:12:05;;;;;;;58.00;37.73;;;3.40;91.20;;;;;;4932935;29;20210;-70
2021/12/06 03:14:38;;;;;;;58.00;37.40;;;3.40;91.20;;;;;;4968780;28;20214;-70
2021/12/06 03:17:13;;;;;;;60.20;38.80;;;3.30;91.20;;;;;;4952855;28;20717;-70
2021/12/06 03:19:41;;;;;;;59.80;37.50;;;3.20;91.20;;;;;;4969579;28;20210;-70
2021/12/06 03:22:12;;;;;;;61.53;37.63;;;3.20;91.60;;;;;;4957017;28;20248;-70
2021/12/06 03:24:41;;;;;;;62.80;41.43;;;3.10;91.90;;;;;;4954405;28;20211;-70
2021/12/06 03:27:10;;;;;;;62.67;39.40;;;3.10;92.20;;;;;;4953740;29;20209;-70
2021/12/06 03:29:38;;;;;;;67.40;38.57;;;3.10;92.40;;;;;;4955077;29;20213;-69
2021/12/06 03:32:06;;;;;;;64.83;39.80;;;3.00;92.50;;;;;;4952883;28;20210;-70
2021/12/06 03:34:34;;;;;;;63.00;40.23;;;3.00;92.50;;;;;;4955889;28;20304;-70
2021/12/06 03:37:04;;;;;;;73.80;43.43;;;3.00;92.60;;;;;;4960444;28;20216;-70
2021/12/06 03:39:41;;;;;;;59.83;39.57;;;3.00;92.70;;;;;;4938772;29;20673;-69
2021/12/06 03:42:19;;;;;;;63.53;43.03;;;3.00;92.70;;;;;;4951464;29;20240;-69
2021/12/06 03:44:47;;;;;;;66.57;42.47;;;3.00;92.80;;;;;;4941219;28;20659;-69
2021/12/06 03:47:18;;;;;;;61.10;40.10;;;3.00;92.80;;;;;;4952760;28;20206;-69
2021/12/06 03:49:46;;;;;;;58.60;40.50;;;3.00;92.80;;;;;;4962996;28;20256;-69
2021/12/06 03:52:16;;;;;;;65.93;42.23;;;3.00;92.80;;;;;;4970154;28;20218;-69
2021/12/06 03:54:48;;;;;;;60.93;41.40;;;3.10;92.80;;;;;;4957690;29;20218;-69
2021/12/06 03:57:18;;;;;;;61.97;40.23;;;3.10;92.80;;;;;;4941881;29;20212;-69
2021/12/06 03:59:47;;;;;;;56.53;38.60;;;3.10;92.70;;;;;;4963006;28;20420;-69
2021/12/06 04:02:16;;;;;;;60.70;40.87;;;3.10;92.70;;;;;;4970453;28;20293;-69
2021/12/06 04:04:44;;;;;;;63.87;39.83;;;3.10;92.60;;;;;;4945110;28;20221;-69
2021/12/06 04:07:12;;;;;;;61.07;40.33;;;3.20;92.60;;;;;;4962858;28;20217;-69
2021/12/06 04:09:42;;;;;;;61.63;39.77;;;3.20;92.50;;;;;;4965350;28;20547;-69
2021/12/06 04:12:10;;;;;;;59.43;40.10;;;3.20;92.50;;;;;;4957126;28;20269;-69
2021/12/06 04:14:40;;;;;;;55.97;39.33;;;3.20;92.40;;;;;;4967877;28;20550;-69
2021/12/06 04:17:08;;;;;;;63.03;40.87;;;3.20;92.70;;;;;;4956641;28;20216;-69
2021/12/06 04:19:36;;;;;;;60.53;38.97;;;3.30;92.40;;;;;;4968134;28;20271;-69
2021/12/06 04:22:05;;;;;;;56.40;38.20;;;3.30;92.40;;;;;;4956382;28;20245;-70
2021/12/06 04:24:33;;;;;;;58.27;38.13;;;3.30;92.30;;;;;;4961667;28;20215;-70
2021/12/06 04:27:12;;;;;;;57.57;37.83;;;3.30;92.30;;;;;;4954399;29;20693;-70
2021/12/06 04:29:45;;;;;;;62.77;38.30;;;3.30;92.40;;;;;;4972083;28;20210;-70
2021/12/06 04:32:14;;;;;;;53.07;36.33;;;3.30;92.30;;;;;;4954396;29;20219;-69
2021/12/06 04:34:43;;;;;;;62.23;37.60;;;3.20;92.20;;;;;;4956861;29;20270;-69
2021/12/06 04:37:11;;;;;;;54.70;37.43;;;3.20;92.30;;;;;;4957433;28;20318;-69
2021/12/06 04:39:40;;;;;;;62.37;39.17;;;3.30;92.30;;;;;;4969986;28;20276;-69
2021/12/06 04:42:08;;;;;;;56.90;36.30;;;3.20;92.20;;;;;;4956258;29;20321;-69
2021/12/06 04:44:37;;;;;;;55.77;37.13;;;3.30;92.60;;;;;;4969746;28;20217;-70
2021/12/06 04:47:07;;;;;;;58.20;36.93;;;3.20;92.20;;;;;;4955959;28;20605;-70
2021/12/06 04:49:35;;;;;;;54.40;35.07;;;3.30;92.30;;;;;;4955854;28;20210;-70
2021/12/06 04:52:10;;;;;;;57.07;35.73;;;3.20;92.20;;;;;;4956298;29;20242;-69
2021/12/06 04:54:42;;;;;;;52.00;34.43;;;3.30;92.20;;;;;;4971086;28;20219;-69
2021/12/06 04:57:21;;;;;;;53.47;34.97;;;3.30;92.20;;;;;;4956143;29;20219;-69
2021/12/06 05:00:00;;;;;;;54.97;34.30;;;3.30;92.20;;;;;;4956407;29;20213;-69
2021/12/06 05:02:33;;;;;;;55.37;34.60;;;3.20;92.20;;;;;;4953980;28;20288;-69
2021/12/06 05:05:17;;;;;;;54.47;34.97;;;3.30;92.20;;;;;;4956436;29;20206;-69
2021/12/06 05:07:49;;;;;;;54.03;33.77;;;3.30;92.20;;;;;;4969137;28;20221;-69
2021/12/06 05:10:18;;;;;;;54.53;34.80;;;3.30;92.20;;;;;;4969292;28;20652;-69
2021/12/06 05:12:46;;;;;;;48.10;33.37;;;3.30;92.50;;;;;;4957004;28;20216;-69
2021/12/06 05:15:15;;;;;;;59.93;34.10;;;3.30;92.20;;;;;;4950097;28;20204;-69
2021/12/06 05:17:44;;;;;;;51.37;32.93;;;3.30;92.20;;;;;;4955966;28;20517;-69
2021/12/06 05:20:15;;;;;;;49.07;31.73;;;3.30;92.10;;;;;;4971423;28;20218;-69
2021/12/06 05:22:45;;;;;;;50.93;33.90;;;3.30;92.10;;;;;;4968291;28;20242;-69
2021/12/06 05:25:14;;;;;;;47.80;32.20;;;3.30;92.10;;;;;;4940223;29;20270;-69
2021/12/06 05:27:43;;;;;;;52.07;33.03;;;3.30;92.30;;;;;;4955944;28;20214;-69
2021/12/06 05:30:13;;;;;;;52.33;33.20;;;3.30;92.00;;;;;;4955804;29;20241;-69
2021/12/06 05:32:42;;;;;;;52.40;31.60;;;3.30;92.00;;;;;;4956041;28;20223;-69
2021/12/06 05:35:13;;;;;;;46.37;30.17;;;3.30;92.00;;;;;;4956819;28;20221;-69
2021/12/06 05:37:46;;;;;;;49.00;30.23;;;3.30;91.90;;;;;;4955588;29;20407;-69
2021/12/06 05:40:20;;;;;;;52.00;31.50;;;3.30;91.90;;;;;;4955038;29;20207;-69
2021/12/06 05:42:48;;;;;;;43.83;30.27;;;3.30;91.90;;;;;;4953341;29;20267;-69
2021/12/06 05:45:18;;;;;;;45.40;30.53;;;3.30;91.90;;;;;;4967814;28;20717;-69
2021/12/06 05:47:46;;;;;;;41.93;29.50;;;3.30;91.90;;;;;;4956508;28;20643;-69
2021/12/06 05:50:15;;;;;;;44.77;30.30;;;3.30;91.90;;;;;;4953866;29;20207;-69
2021/12/06 05:52:42;;;;;;;45.80;29.63;;;3.30;91.90;;;;;;4954539;29;20225;-69
2021/12/06 05:55:10;;;;;;;49.70;30.93;;;3.30;91.80;;;;;;4956045;28;20242;-69
2021/12/06 05:57:42;;;;;;;44.87;30.07;;;3.30;91.80;;;;;;4952394;29;20274;-69
2021/12/06 06:00:12;;;;;;;47.40;31.13;;;3.30;91.80;;;;;;4953240;28;20207;-69
2021/12/06 06:02:41;;;;;;;47.20;29.80;;;3.30;91.70;;;;;;4939034;29;20304;-69
2021/12/06 06:05:10;;;;;;;46.73;31.27;;;3.30;91.80;;;;;;4955238;29;20213;-69
2021/12/06 06:07:37;;;;;;;45.67;31.53;;;3.30;91.80;;;;;;4953662;28;20241;-70
2021/12/06 06:10:06;;;;;;;48.20;31.00;;;3.30;91.80;;;;;;4954852;29;20309;-69
2021/12/06 06:12:33;;;;;;;51.87;33.33;;;3.20;91.80;;;;;;4970033;28;20230;-69
2021/12/06 06:15:01;;;;;;;49.17;30.50;;;3.20;91.80;;;;;;4954948;28;20214;-69
2021/12/06 06:17:32;;;;;;;51.93;32.47;;;3.20;91.80;;;;;;4951937;29;20218;-69
2021/12/06 06:20:02;;;;;;;51.70;32.33;;;3.20;91.90;;;;;;4952883;28;20211;-69
2021/12/06 06:22:30;;;;;;;49.73;32.43;;;3.20;91.90;;;;;;4954830;29;20246;-69
2021/12/06 06:24:57;;;;;;;50.43;33.17;;;3.30;91.90;;;;;;4953733;29;20668;-69
2021/12/06 06:27:24;;;;;;;55.43;32.83;;;3.30;91.90;;;;;;4955361;28;20212;-70
2021/12/06 06:29:52;;;;;;;52.30;33.90;;;3.30;91.90;;;;;;4955038;29;20293;-69
2021/12/06 06:32:19;;;;;;;55.77;35.60;;;3.30;91.90;;;;;;4955995;28;20211;-69
2021/12/06 06:34:46;;;;;;;51.30;33.03;;;3.30;91.90;;;;;;4956280;28;20292;-69
2021/12/06 06:37:14;;;;;;;50.70;33.87;;;3.30;91.90;;;;;;4954601;29;20207;-69
2021/12/06 06:39:41;;;;;;;53.27;32.77;;;3.30;91.90;;;;;;4956323;28;20230;-69
2021/12/06 06:42:08;;;;;;;52.77;34.43;;;3.30;92.00;;;;;;4953201;29;20285;-69
2021/12/06 06:44:36;;;;;;;54.47;33.13;;;3.30;92.00;;;;;;4955686;28;20290;-69
2021/12/06 06:47:03;;;;;;;58.70;34.73;;;3.30;92.00;;;;;;4955842;28;20206;-69
2021/12/06 06:49:31;;;;;;;63.90;34.07;;;3.30;92.00;;;;;;4955411;28;20295;-69
2021/12/06 06:52:00;;;;;;;52.87;32.83;;;3.30;92.00;;;;;;4955176;28;20241;-69
2021/12/06 06:54:27;;;;;;;51.93;33.50;;;3.30;92.00;;;;;;4954953;29;20210;-69
2021/12/06 06:56:54;;;;;;;56.37;34.20;;;3.30;92.00;;;;;;4955308;29;20204;-69
2021/12/06 06:59:22;;;;;;;55.20;34.23;;;3.30;92.00;;;;;;4970904;28;20226;-69
2021/12/06 07:01:49;;;;;;;57.00;35.53;;;3.30;92.10;;;;;;4956177;28;20239;-69
2021/12/06 07:04:17;;;;;;;57.27;34.33;;;3.30;92.00;;;;;;4955578;28;20658;-69
2021/12/06 07:06:45;;;;;;;49.27;34.03;;;3.30;92.00;;;;;;4952415;28;20229;-69
2021/12/06 07:09:12;;;;;;;58.47;35.33;;;3.30;92.00;;;;;;4953276;29;20222;-69
2021/12/06 07:11:44;;;;;;;52.63;34.87;;;3.40;92.10;;;;;;4959750;28;20213;-69
2021/12/06 07:14:14;;;;;;;56.63;35.73;;;3.40;92.10;;;;;;4958617;28;20771;-69
2021/12/06 07:16:44;;;;;;;56.80;37.30;;;3.40;92.10;;;;;;4954503;29;20301;-69
2021/12/06 07:19:12;;;;;;;57.20;35.87;;;3.40;92.10;;;;;;4956176;28;20282;-69
2021/12/06 07:21:57;;;;;;;54.10;35.30;;;3.50;92.10;;;;;;4942412;28;20266;-69
2021/12/06 07:24:26;;;;;;;55.37;35.63;;;3.50;92.10;;;;;;4956074;28;20234;-69
2021/12/06 07:26:53;;;;;;;61.03;39.00;;;3.50;92.10;;;;;;4954978;29;20274;-70
2021/12/06 07:29:21;;;;;;;59.37;36.03;;;3.60;92.10;;;;;;4956094;28;20299;-69
2021/12/06 07:31:48;;;;;;;53.50;35.17;;;3.60;92.00;;;;;;4953475;29;20297;-69
2021/12/06 07:34:15;;;;;;;54.87;36.83;;;3.70;91.90;;;;;;4954398;29;20727;-69
2021/12/06 07:36:43;;;;;;;55.90;36.63;;;3.70;91.80;;;;;;4955962;28;20293;-69
2021/12/06 07:39:10;;;;;;;56.80;36.07;;;3.70;91.70;;;;;;4956335;28;20273;-69
2021/12/06 07:41:38;;;;;;;56.73;36.77;;;3.60;91.60;;;;;;4954905;28;20309;-69
2021/12/06 07:44:06;;;;;;;56.63;36.83;;;3.60;91.60;;;;;;4956447;29;20304;-69
2021/12/06 07:46:33;;;;;;;59.03;37.13;;;3.60;91.60;;;;;;4955952;29;20289;-69
2021/12/06 07:49:01;;;;;;;51.67;36.00;;;3.70;91.70;;;;;;4956670;28;20202;-69
2021/12/06 07:51:29;;;;;;;52.23;36.03;;;3.70;91.60;;;;;;4955768;28;20231;-69
2021/12/06 07:53:58;;;;;;;63.40;37.57;;;3.80;91.60;;;;;;4955518;29;20207;-69
2021/12/06 07:56:25;;;;;;;59.67;38.37;;;3.80;91.50;;;;;;4954368;28;20636;-69
2021/12/06 07:58:53;;;;;;;55.37;36.73;;;3.90;91.60;;;;;;4968661;28;20219;-69
2021/12/06 08:01:21;;;;;;;56.60;37.73;;;3.90;91.60;;;;;;4956350;28;20231;-69
2021/12/06 08:03:49;;;;;;;59.93;37.80;;;4.00;91.60;;;;;;4956205;28;20231;-69
2021/12/06 08:06:16;;;;;;;57.80;38.67;;;4.00;91.50;;;;;;4955659;28;20261;-69
2021/12/06 08:08:44;;;;;;;56.83;37.40;;;4.00;91.40;;;;;;4954863;28;20212;-69
2021/12/06 08:11:14;;;;;;;63.37;39.33;;;4.10;91.40;;;;;;4967908;28;20213;-69
2021/12/06 08:13:44;;;;;;;53.80;38.57;;;4.10;91.40;;;;;;4970381;28;20656;-69
2021/12/06 08:16:16;;;;;;;63.53;39.13;;;4.00;91.30;;;;;;4960013;28;20259;-69
2021/12/06 08:18:46;;;;;;;60.97;39.77;;;4.10;91.30;;;;;;4952653;29;20226;-69
2021/12/06 08:21:18;;;;;;;64.00;41.23;;;4.10;91.30;;;;;;4955161;29;20288;-69
2021/12/06 08:23:48;;;;;;;65.27;40.73;;;4.10;91.40;;;;;;4957187;28;20627;-69
2021/12/06 08:26:20;;;;;;;61.87;40.73;;;4.10;91.40;;;;;;4953900;29;20208;-69
2021/12/06 08:28:49;;;;;;;61.60;39.80;;;4.00;91.50;;;;;;4952277;28;20238;-69
2021/12/06 08:31:18;;;;;;;69.37;40.90;;;4.10;91.60;;;;;;4936066;29;20219;-69
2021/12/06 08:33:47;;;;;;;62.33;41.17;;;4.10;91.60;;;;;;4952574;29;20218;-69
2021/12/06 08:36:16;;;;;;;67.90;41.50;;;4.10;91.60;;;;;;4954463;28;20277;-69
2021/12/06 08:38:44;;;;;;;61.37;40.27;;;4.10;91.70;;;;;;4954192;29;20230;-69
2021/12/06 08:41:16;;;;;;;60.30;39.97;;;4.20;91.70;;;;;;4956103;28;20297;-69
2021/12/06 08:43:44;;;;;;;64.00;40.70;;;4.20;91.60;;;;;;4969555;28;20233;-69
2021/12/06 08:46:19;;;;;;;62.20;40.10;;;4.20;91.60;;;;;;4957590;29;20240;-69
2021/12/06 08:48:49;;;;;;;60.83;39.30;;;4.20;91.60;;;;;;4959091;28;20605;-69
2021/12/06 08:51:38;;;;;;;65.37;41.20;;;4.30;91.70;;;;;;4958736;28;20587;-69
2021/12/06 08:54:07;;;;;;;62.30;41.13;;;4.30;91.70;;;;;;4958609;29;20378;-69
2021/12/06 08:56:36;;;;;;;61.77;41.37;;;4.30;91.60;;;;;;4956252;29;20216;-69
2021/12/06 08:59:05;;;;;;;63.47;39.70;;;4.30;91.60;;;;;;4954830;28;20245;-69
2021/12/06 09:01:34;;;;;;;54.27;36.17;;;4.40;91.90;;;;;;4955031;28;20232;-69
2021/12/06 09:04:23;;;;;;;62.57;40.67;;;4.40;91.70;;;;;;4958999;28;20235;-69
2021/12/06 09:06:53;;;;;;;59.10;38.40;;;4.50;91.70;;;;;;4958758;28;20207;-69
2021/12/06 09:09:21;;;;;;;58.67;38.87;;;4.60;91.60;;;;;;4953293;28;20211;-69
2021/12/06 09:11:49;;;;;;;59.67;38.87;;;4.60;91.50;;;;;;4970541;28;20215;-69
2021/12/06 09:14:17;;;;;;;54.87;38.47;;;4.60;91.40;;;;;;4957611;28;20257;-69
2021/12/06 09:16:46;;;;;;;54.33;37.50;;;4.70;91.40;;;;;;4958270;28;20226;-69
2021/12/06 09:19:15;;;;;;;53.40;36.13;;;4.70;91.30;;;;;;4964992;28;20226;-69
2021/12/06 09:21:43;;;;;;;59.53;38.83;;;4.80;91.40;;;;;;4956996;29;20780;-69
2021/12/06 09:24:17;;;;;;;54.63;36.43;;;4.90;91.30;;;;;;4957672;29;20227;-69
2021/12/06 09:26:46;;;;;;;48.40;34.03;;;5.00;91.20;;;;;;4961028;28;20641;-69
2021/12/06 09:29:13;;;;;;;53.53;36.07;;;5.10;91.10;;;;;;4955497;28;20612;-69
2021/12/06 09:31:41;;;;;;;54.63;35.83;;;5.20;91.10;;;;;;4957590;28;20521;-69
2021/12/06 09:34:08;;;;;;;50.63;35.47;;;5.30;91.10;;;;;;4957464;28;20527;-69
2021/12/06 09:36:36;;;;;;;49.60;33.90;;;5.40;91.10;;;;;;4957798;28;20238;-69
2021/12/06 09:39:05;;;;;;;49.23;33.77;;;5.50;91.10;;;;;;4965472;28;20211;-69
2021/12/06 09:41:33;;;;;;;49.00;34.63;;;5.60;91.10;;;;;;4969757;28;20236;-69
2021/12/06 09:44:02;;;;;;;51.20;33.10;;;5.70;91.00;;;;;;4957106;29;20256;-69
2021/12/06 09:46:35;;;;;;;48.03;32.83;;;5.80;90.90;;;;;;4957699;28;20298;-69
2021/12/06 09:49:11;;;;;;;52.40;33.83;;;5.90;90.80;;;;;;4957071;28;20605;-69
2021/12/06 09:51:40;;;;;;;44.50;32.17;;;6.00;90.70;;;;;;4956986;29;20295;-69
2021/12/06 09:54:09;;;;;;;46.93;32.37;;;6.10;90.60;;;;;;4969445;28;20318;-69
2021/12/06 09:56:42;;;;;;;44.33;31.67;;;6.20;90.60;;;;;;4969027;28;20221;-69
2021/12/06 09:59:15;;;;;;;44.60;30.23;;;6.30;90.50;;;;;;4956027;29;20291;-69
2021/12/06 10:01:48;;;;;;;40.93;30.17;;;6.30;90.40;;;;;;4954535;28;20268;-69
2021/12/06 10:04:16;;;;;;;46.63;30.93;;;6.40;90.30;;;;;;4955903;29;20284;-69
2021/12/06 10:06:46;;;;;;;39.57;29.40;;;6.50;90.30;;;;;;4956942;28;20224;-69
2021/12/06 10:09:16;;;;;;;46.33;31.47;;;6.60;89.10;;;;;;4955140;28;20220;-69
2021/12/06 10:11:44;;;;;;;42.87;29.90;;;6.60;89.40;;;;;;4954789;29;20205;-69
2021/12/06 10:14:12;;;;;;;42.23;29.90;;;6.70;89.30;;;;;;4964195;28;20232;-69
2021/12/06 10:16:39;;;;;;;46.07;30.97;;;6.80;89.40;;;;;;4957318;28;20213;-69
2021/12/06 10:19:07;;;;;;;42.90;30.00;;;6.80;88.60;;;;;;4957314;29;20220;-69
2021/12/06 10:21:36;;;;;;;42.17;27.93;;;6.90;88.20;;;;;;4956906;28;20295;-69
2021/12/06 10:24:08;;;;;;;37.30;27.30;;;7.00;88.70;;;;;;4961778;28;20256;-69
2021/12/06 10:26:36;;;;;;;37.73;27.73;;;7.00;88.10;;;;;;4972236;28;20233;-69
2021/12/06 10:29:09;;;;;;;39.47;28.33;;;7.10;87.50;;;;;;4957381;28;20291;-68
2021/12/06 10:31:43;;;;;;;35.97;27.13;;;7.10;87.90;;;;;;4957317;28;20545;-68
2021/12/06 10:34:16;;;;;;;44.03;29.73;;;7.20;88.10;;;;;;4953833;29;20216;-68
2021/12/06 10:36:44;;;;;;;37.10;25.00;;;7.30;87.70;;;;;;4941607;29;20295;-68
2021/12/06 10:39:11;;;;;;;34.47;24.43;;;7.40;86.30;;;;;;4956697;28;20653;-68
2021/12/06 10:41:39;;;;;;;36.83;25.63;;;7.40;85.20;;;;;;4953340;29;20213;-68
2021/12/06 10:44:10;;;;;;;37.10;26.13;;;7.40;85.90;;;;;;4956920;29;20244;-68
2021/12/06 10:46:41;;;;;;;39.67;24.80;;;7.40;86.80;;;;;;4956420;29;20224;-68
2021/12/06 10:49:15;;;;;;;34.27;25.10;;;7.50;86.80;;;;;;4956152;29;20601;-68
2021/12/06 10:51:42;;;;;;;35.10;25.40;;;7.60;86.80;;;;;;4969398;28;20293;-68
2021/12/06 10:54:20;;;;;;;36.00;25.73;;;7.80;86.70;;;;;;4952122;29;20205;-68
2021/12/06 10:56:52;;;;;;;32.97;23.47;;;7.90;86.20;;;;;;4956625;28;20292;-69
2021/12/06 10:59:26;;;;;;;32.67;23.83;;;8.00;85.00;;;;;;4955591;28;20268;-69
2021/12/06 11:02:03;;;;;;;32.50;23.63;;;8.20;84.70;;;;;;4954129;29;20228;-69
2021/12/06 11:04:31;;;;;;;29.57;21.20;;;8.20;83.40;;;;;;4953219;29;20661;-69
2021/12/06 11:07:17;;;;;;;34.07;22.90;;;8.30;82.40;;;;;;4966099;28;20369;-69
2021/12/06 11:09:46;;;;;;;33.17;23.07;;;8.30;80.30;;;;;;4955783;29;20302;-69
2021/12/06 11:12:20;;;;;;;26.83;20.50;;;8.20;82.00;;;;;;4953477;29;20207;-68
2021/12/06 11:14:49;;;;;;;31.37;21.70;;;8.30;81.50;;;;;;4956867;28;20205;-68
2021/12/06 11:17:19;;;;;;;32.50;23.53;;;8.30;81.20;;;;;;4954632;29;20229;-69
2021/12/06 11:19:54;;;;;;;31.40;23.37;;;8.30;80.80;;;;;;4955491;28;20229;-69
2021/12/06 11:22:24;;;;;;;32.37;23.70;;;8.50;82.20;;;;;;4953821;29;20249;-69
2021/12/06 11:24:53;;;;;;;28.43;20.83;;;8.60;82.70;;;;;;4954427;29;20312;-69
2021/12/06 11:27:25;;;;;;;28.23;21.70;;;8.70;80.30;;;;;;4954968;29;20645;-69
2021/12/06 11:30:02;;;;;;;31.00;21.90;;;8.70;80.30;;;;;;4970079;28;20546;-69
2021/12/06 11:32:32;;;;;;;31.97;24.10;;;8.70;78.90;;;;;;4966846;28;20672;-69
2021/12/06 11:35:06;;;;;;;30.20;22.27;;;8.70;80.10;;;;;;4955483;29;20232;-69
2021/12/06 11:37:43;;;;;;;35.53;23.97;;;8.80;80.60;;;;;;4954928;28;20544;-69
2021/12/06 11:40:22;;;;;;;30.03;22.43;;;8.90;81.00;;;;;;4954141;29;20296;-69
2021/12/06 11:43:17;;;;;;;31.83;21.47;;;9.00;81.60;;;;;;4952602;29;20218;-69
2021/12/06 11:45:59;;;;;;;30.97;21.70;;;9.20;81.60;;;;;;4955123;28;20240;-69
2021/12/06 11:48:35;;;;;;;30.47;21.17;;;9.40;79.30;;;;;;4954726;29;20202;-69
2021/12/06 11:51:16;;;;;;;28.53;19.80;;;9.50;79.40;;;;;;4953159;28;20304;-69
2021/12/06 11:53:48;;;;;;;33.17;24.27;;;9.60;76.40;;;;;;4936441;29;20216;-69
2021/12/06 11:56:23;;;;;;;34.20;25.07;;;9.60;77.90;;;;;;4955764;28;20288;-69
2021/12/06 11:58:55;;;;;;;34.07;25.63;;;9.70;80.00;;;;;;4965714;28;20206;-69
2021/12/06 12:01:24;;;;;;;31.63;23.10;;;9.80;81.10;;;;;;4967952;28;20564;-69
2021/12/06 12:03:59;;;;;;;32.67;24.00;;;9.90;81.10;;;;;;4953398;28;20280;-69
2021/12/06 12:06:35;;;;;;;35.43;24.07;;;10.00;80.40;;;;;;4965553;28;20249;-69
2021/12/06 12:09:25;;;;;;;33.60;23.43;;;10.10;79.90;;;;;;4951833;29;20201;-69
2021/12/06 12:12:04;;;;;;;32.63;22.83;;;10.20;79.50;;;;;;4953686;28;20206;-69
2021/12/06 12:14:35;;;;;;;30.93;22.10;;;10.30;79.20;;;;;;4958139;29;20276;-69
2021/12/06 12:17:07;;;;;;;28.80;21.43;;;10.40;78.60;;;;;;4955765;29;20220;-70
2021/12/06 12:19:35;;;;;;;28.83;22.77;;;10.40;75.40;;;;;;4972514;28;20214;-69
2021/12/06 12:22:03;;;;;;;29.67;22.97;;;10.40;76.70;;;;;;4957852;29;20541;-69
2021/12/06 12:24:31;;;;;;;30.83;22.67;;;10.40;77.50;;;;;;4958045;29;20240;-69
2021/12/06 12:27:09;;;;;;;36.40;23.27;;;10.40;77.80;;;;;;4955001;29;20222;-69
2021/12/06 12:29:36;;;;;;;33.57;24.60;;;10.40;77.90;;;;;;4943768;29;20218;-69
2021/12/06 12:32:06;;;;;;;32.60;23.73;;;10.50;78.20;;;;;;4958308;29;20201;-69
2021/12/06 12:34:38;;;;;;;33.90;23.20;;;10.50;77.50;;;;;;4956573;28;20212;-69
2021/12/06 12:37:07;;;;;;;30.70;23.57;;;10.60;77.10;;;;;;4935309;28;20222;-69
2021/12/06 12:39:35;;;;;;;31.87;24.27;;;10.60;77.10;;;;;;4956125;29;20635;-69
2021/12/06 12:42:04;;;;;;;31.60;23.17;;;10.60;77.10;;;;;;4973341;28;20571;-69
2021/12/06 12:44:48;;;;;;;31.90;24.43;;;10.60;77.40;;;;;;4958706;28;20226;-69
2021/12/06 12:47:25;;;;;;;32.00;23.63;;;10.70;77.50;;;;;;4958777;29;20287;-69
2021/12/06 12:50:11;;;;;;;35.77;26.33;;;10.70;76.90;;;;;;4958216;29;20245;-69
2021/12/06 12:52:49;;;;;;;32.27;25.13;;;10.60;76.90;;;;;;4957290;29;20206;-69
2021/12/06 12:55:27;;;;;;;28.30;18.33;;;10.60;77.00;;;;;;4972386;28;20211;-69
2021/12/06 12:58:14;;;;;;;25.73;20.23;;;10.50;72.80;;;;;;4958852;29;20301;-69
2021/12/06 13:00:44;;;;;;;32.13;22.93;;;10.30;72.60;;;;;;4956564;29;20265;-69
2021/12/06 13:03:40;;;;;;;33.70;22.90;;;10.20;74.10;;;;;;4955443;29;20206;-69
2021/12/06 13:06:31;;;;;;;30.67;22.47;;;10.00;75.40;;;;;;4954846;29;20329;-69
2021/12/06 13:09:05;;;;;;;29.93;22.73;;;9.90;75.80;;;;;;4950765;28;20639;-69